sensor_id;sensor_type;location;lat;lon;timestamp;pressure;altitude;pressure_sealevel;temperature;humidity
37648;BME280;23490;53.656;10.076;2023-03-03T00:01:04;99826.94;;;-145.95;100.00
37648;BME280;23490;53.656;10.076;2023-03-03T00:03:30;99826.94;;;-145.95;100.00
37648;BME280;23490;53.656;10.076;2023-03-03T00:05:56;99860.00;;;-145.95;100.00
37648;BME280;23490;53.656;10.076;2023-03-03T00:08:22;99853.78;;;-145.95;100.00
37648;BME280;23490;53.656;10.076;2023-03-03T00:10:48;99837.28;;;-145.95;100.00
37648;BME280;23490;53.656;10.076;2023-03-03T00:13:16;99843.47;;;-145.95;100.00
37648;BME280;23490;53.656;10.076;2023-03-03T00:15:43;99826.94;;;-145.95;100.00
37648;BME280;23490;53.656;10.076;2023-03-03T00:20:51;99829.00;;;-145.95;100.00
37648;BME280;23490;53.656;10.076;2023-03-03T00:23:38;99839.34;;;-145.95;100.00
37648;BME280;23490;53.656;10.076;2023-03-03T00:26:30;99835.19;;;-145.95;100.00
37648;BME280;23490;53.656;10.076;2023-03-03T00:29:00;99853.78;;;-145.95;100.00
37648;BME280;23490;53.656;10.076;2023-03-03T00:31:32;99860.00;;;-145.95;100.00
37648;BME280;23490;53.656;10.076;2023-03-03T00:34:18;99851.72;;;-145.95;100.00
37648;BME280;23490;53.656;10.076;2023-03-03T00:36:51;99839.34;;;-145.95;100.00
37648;BME280;23490;53.656;10.076;2023-03-03T00:39:33;99860.00;;;-145.95;100.00
37648;BME280;23490;53.656;10.076;2023-03-03T00:42:00;99855.84;;;-145.95;100.00
37648;BME280;23490;53.656;10.076;2023-03-03T00:44:42;99860.00;;;-145.95;100.00
37648;BME280;23490;53.656;10.076;2023-03-03T00:49:58;99847.59;;;-145.95;100.00
37648;BME280;23490;53.656;10.076;2023-03-03T00:52:40;99829.00;;;-145.95;100.00
37648;BME280;23490;53.656;10.076;2023-03-03T00:55:10;99857.94;;;-145.95;100.00
37648;BME280;23490;53.656;10.076;2023-03-03T00:57:35;99847.59;;;-145.95;100.00
37648;BME280;23490;53.656;10.076;2023-03-03T01:00:02;99849.66;;;-145.95;100.00
37648;BME280;23490;53.656;10.076;2023-03-03T01:02:27;99855.84;;;-145.95;100.00
37648;BME280;23490;53.656;10.076;2023-03-03T01:04:53;99822.81;;;-145.95;100.00
37648;BME280;23490;53.656;10.076;2023-03-03T01:07:22;99853.78;;;-145.95;100.00
37648;BME280;23490;53.656;10.076;2023-03-03T01:09:48;99847.59;;;-145.95;100.00
37648;BME280;23490;53.656;10.076;2023-03-03T01:12:13;99839.34;;;-145.95;100.00
37648;BME280;23490;53.656;10.076;2023-03-03T01:14:39;99833.13;;;-145.95;100.00
37648;BME280;23490;53.656;10.076;2023-03-03T01:17:05;99839.34;;;-145.95;100.00
37648;BME280;23490;53.656;10.076;2023-03-03T01:19:31;99841.41;;;-145.95;100.00
37648;BME280;23490;53.656;10.076;2023-03-03T01:21:56;99826.94;;;-145.95;100.00
37648;BME280;23490;53.656;10.076;2023-03-03T01:24:22;99888.91;;;-145.95;100.00
37648;BME280;23490;53.656;10.076;2023-03-03T01:26:47;99851.72;;;-145.95;100.00
37648;BME280;23490;53.656;10.076;2023-03-03T01:29:13;99822.81;;;-145.95;100.00
37648;BME280;23490;53.656;10.076;2023-03-03T01:31:38;99855.84;;;-145.95;100.00
37648;BME280;23490;53.656;10.076;2023-03-03T01:34:04;99814.56;;;-145.95;100.00
37648;BME280;23490;53.656;10.076;2023-03-03T01:36:32;99851.72;;;-145.95;100.00
37648;BME280;23490;53.656;10.076;2023-03-03T01:38:58;99851.72;;;-145.95;100.00
37648;BME280;23490;53.656;10.076;2023-03-03T01:41:27;99814.56;;;-145.95;100.00
37648;BME280;23490;53.656;10.076;2023-03-03T01:43:54;99826.94;;;-145.95;100.00
37648;BME280;23490;53.656;10.076;2023-03-03T01:48:52;99818.69;;;-145.95;100.00
37648;BME280;23490;53.656;10.076;2023-03-03T01:51:25;99826.94;;;-145.95;100.00
37648;BME280;23490;53.656;10.076;2023-03-03T01:54:00;99847.59;;;-145.95;100.00
37648;BME280;23490;53.656;10.076;2023-03-03T01:56:27;99864.13;;;-145.95;100.00
37648;BME280;23490;53.656;10.076;2023-03-03T02:01:25;99851.72;;;-145.95;100.00
37648;BME280;23490;53.656;10.076;2023-03-03T02:03:51;99845.53;;;-145.95;100.00
37648;BME280;23490;53.656;10.076;2023-03-03T02:06:23;99835.19;;;-145.95;100.00
37648;BME280;23490;53.656;10.076;2023-03-03T02:09:06;99839.34;;;-145.95;100.00
37648;BME280;23490;53.656;10.076;2023-03-03T02:11:36;99855.84;;;-145.95;100.00
37648;BME280;23490;53.656;10.076;2023-03-03T02:14:02;99872.38;;;-145.95;100.00
37648;BME280;23490;53.656;10.076;2023-03-03T02:16:27;99851.72;;;-145.95;100.00
37648;BME280;23490;53.656;10.076;2023-03-03T02:18:53;99868.25;;;-145.95;100.00
37648;BME280;23490;53.656;10.076;2023-03-03T02:21:20;99843.47;;;-145.95;100.00
37648;BME280;23490;53.656;10.076;2023-03-03T02:26:22;99847.59;;;-145.95;100.00
37648;BME280;23490;53.656;10.076;2023-03-03T02:28:49;99843.47;;;-145.95;100.00
37648;BME280;23490;53.656;10.076;2023-03-03T02:31:16;99806.28;;;-145.95;100.00
37648;BME280;23490;53.656;10.076;2023-03-03T02:33:44;99872.38;;;-145.95;100.00
37648;BME280;23490;53.656;10.076;2023-03-03T02:36:19;99841.41;;;-145.95;100.00
37648;BME280;23490;53.656;10.076;2023-03-03T02:38:56;99888.91;;;-145.95;100.00
37648;BME280;23490;53.656;10.076;2023-03-03T02:44:10;99843.47;;;-145.95;100.00
37648;BME280;23490;53.656;10.076;2023-03-03T02:46:41;99860.00;;;-145.95;100.00
37648;BME280;23490;53.656;10.076;2023-03-03T02:49:09;99866.19;;;-145.95;100.00
37648;BME280;23490;53.656;10.076;2023-03-03T02:51:36;99857.94;;;-145.95;100.00
37648;BME280;23490;53.656;10.076;2023-03-03T02:54:02;99884.78;;;-145.95;100.00
37648;BME280;23490;53.656;10.076;2023-03-03T02:56:28;99835.19;;;-145.95;100.00
37648;BME280;23490;53.656;10.076;2023-03-03T02:58:53;99884.78;;;-145.95;100.00
37648;BME280;23490;53.656;10.076;2023-03-03T03:01:19;99872.38;;;-145.95;100.00
37648;BME280;23490;53.656;10.076;2023-03-03T03:03:44;99847.59;;;-145.95;100.00
37648;BME280;23490;53.656;10.076;2023-03-03T03:06:10;99849.66;;;-145.95;100.00
37648;BME280;23490;53.656;10.076;2023-03-03T03:08:35;99831.06;;;-145.95;100.00
37648;BME280;23490;53.656;10.076;2023-03-03T03:11:02;99860.00;;;-145.95;100.00
37648;BME280;23490;53.656;10.076;2023-03-03T03:13:27;99835.19;;;-145.95;100.00
37648;BME280;23490;53.656;10.076;2023-03-03T03:15:52;99876.50;;;-145.95;100.00
37648;BME280;23490;53.656;10.076;2023-03-03T03:18:18;99905.44;;;-145.95;100.00
37648;BME280;23490;53.656;10.076;2023-03-03T03:20:44;99851.72;;;-145.95;100.00
37648;BME280;23490;53.656;10.076;2023-03-03T03:23:10;99843.47;;;-145.95;100.00
37648;BME280;23490;53.656;10.076;2023-03-03T03:25:35;99868.25;;;-145.95;100.00
37648;BME280;23490;53.656;10.076;2023-03-03T03:28:07;99864.13;;;-145.95;100.00
37648;BME280;23490;53.656;10.076;2023-03-03T03:30:32;99855.84;;;-145.95;100.00
37648;BME280;23490;53.656;10.076;2023-03-03T03:32:59;99901.31;;;-145.95;100.00
37648;BME280;23490;53.656;10.076;2023-03-03T03:35:24;99880.66;;;-145.95;100.00
37648;BME280;23490;53.656;10.076;2023-03-03T03:37:49;99872.38;;;-145.95;100.00
37648;BME280;23490;53.656;10.076;2023-03-03T03:40:15;99874.44;;;-145.95;100.00
37648;BME280;23490;53.656;10.076;2023-03-03T03:42:40;99847.59;;;-145.95;100.00
37648;BME280;23490;53.656;10.076;2023-03-03T03:45:06;99878.56;;;-145.95;100.00
37648;BME280;23490;53.656;10.076;2023-03-03T03:47:31;99866.19;;;-145.95;100.00
37648;BME280;23490;53.656;10.076;2023-03-03T03:49:57;99851.72;;;-145.95;100.00
37648;BME280;23490;53.656;10.076;2023-03-03T03:52:22;99868.25;;;-145.95;100.00
37648;BME280;23490;53.656;10.076;2023-03-03T03:54:47;99868.25;;;-145.95;100.00
37648;BME280;23490;53.656;10.076;2023-03-03T03:57:13;99872.38;;;-145.95;100.00
37648;BME280;23490;53.656;10.076;2023-03-03T03:59:38;99874.44;;;-145.95;100.00
37648;BME280;23490;53.656;10.076;2023-03-03T04:02:03;99882.72;;;-145.95;100.00
37648;BME280;23490;53.656;10.076;2023-03-03T04:04:29;99901.31;;;-145.95;100.00
37648;BME280;23490;53.656;10.076;2023-03-03T04:06:54;99870.31;;;-145.95;100.00
37648;BME280;23490;53.656;10.076;2023-03-03T04:09:19;99880.66;;;-145.95;100.00
37648;BME280;23490;53.656;10.076;2023-03-03T04:11:45;99888.91;;;-145.95;100.00
37648;BME280;23490;53.656;10.076;2023-03-03T04:14:10;99868.25;;;-145.95;100.00
37648;BME280;23490;53.656;10.076;2023-03-03T04:16:35;99888.91;;;-145.95;100.00
37648;BME280;23490;53.656;10.076;2023-03-03T04:19:01;99905.44;;;-145.95;100.00
37648;BME280;23490;53.656;10.076;2023-03-03T04:21:26;99893.03;;;-145.95;100.00
37648;BME280;23490;53.656;10.076;2023-03-03T04:23:52;99868.25;;;-145.95;100.00
37648;BME280;23490;53.656;10.076;2023-03-03T04:26:17;99860.00;;;-145.95;100.00
37648;BME280;23490;53.656;10.076;2023-03-03T04:28:43;99884.78;;;-145.95;100.00
37648;BME280;23490;53.656;10.076;2023-03-03T04:31:08;99860.00;;;-145.95;100.00
37648;BME280;23490;53.656;10.076;2023-03-03T04:33:34;99839.34;;;-145.95;100.00
37648;BME280;23490;53.656;10.076;2023-03-03T04:36:00;99876.50;;;-145.95;100.00
37648;BME280;23490;53.656;10.076;2023-03-03T04:38:25;99870.31;;;-145.95;100.00
37648;BME280;23490;53.656;10.076;2023-03-03T04:40:51;99872.38;;;-145.95;100.00
37648;BME280;23490;53.656;10.076;2023-03-03T04:43:16;99872.38;;;-145.95;100.00
37648;BME280;23490;53.656;10.076;2023-03-03T04:45:42;99880.66;;;-145.95;100.00
37648;BME280;23490;53.656;10.076;2023-03-03T04:48:07;99843.47;;;-145.95;100.00
37648;BME280;23490;53.656;10.076;2023-03-03T04:50:32;99893.03;;;-145.95;100.00
37648;BME280;23490;53.656;10.076;2023-03-03T04:52:59;99872.38;;;-145.95;100.00
37648;BME280;23490;53.656;10.076;2023-03-03T04:55:24;99868.25;;;-145.95;100.00
37648;BME280;23490;53.656;10.076;2023-03-03T04:57:49;99855.84;;;-145.95;100.00
37648;BME280;23490;53.656;10.076;2023-03-03T05:00:15;99872.38;;;-145.95;100.00
37648;BME280;23490;53.656;10.076;2023-03-03T05:02:41;99905.44;;;-145.95;100.00
37648;BME280;23490;53.656;10.076;2023-03-03T05:05:07;99872.38;;;-145.95;100.00
37648;BME280;23490;53.656;10.076;2023-03-03T05:07:34;99839.34;;;-145.95;100.00
37648;BME280;23490;53.656;10.076;2023-03-03T05:09:59;99876.50;;;-145.95;100.00
37648;BME280;23490;53.656;10.076;2023-03-03T05:12:25;99864.13;;;-145.95;100.00
37648;BME280;23490;53.656;10.076;2023-03-03T05:14:51;99864.13;;;-145.95;100.00
37648;BME280;23490;53.656;10.076;2023-03-03T05:17:16;99905.44;;;-145.95;100.00
37648;BME280;23490;53.656;10.076;2023-03-03T05:19:41;99860.00;;;-145.95;100.00
37648;BME280;23490;53.656;10.076;2023-03-03T05:22:07;99835.19;;;-145.95;100.00
37648;BME280;23490;53.656;10.076;2023-03-03T05:24:32;99847.59;;;-145.95;100.00
37648;BME280;23490;53.656;10.076;2023-03-03T05:26:57;99897.16;;;-145.95;100.00
37648;BME280;23490;53.656;10.076;2023-03-03T05:29:22;99855.84;;;-145.95;100.00
37648;BME280;23490;53.656;10.076;2023-03-03T05:31:48;99884.78;;;-145.95;100.00
37648;BME280;23490;53.656;10.076;2023-03-03T05:34:13;99888.91;;;-145.95;100.00
37648;BME280;23490;53.656;10.076;2023-03-03T05:36:39;99897.16;;;-145.95;100.00
37648;BME280;23490;53.656;10.076;2023-03-03T05:39:04;99884.78;;;-145.95;100.00
37648;BME280;23490;53.656;10.076;2023-03-03T05:41:30;99864.13;;;-145.95;100.00
37648;BME280;23490;53.656;10.076;2023-03-03T05:43:55;99876.50;;;-145.95;100.00
37648;BME280;23490;53.656;10.076;2023-03-03T05:46:20;99876.50;;;-145.95;100.00
37648;BME280;23490;53.656;10.076;2023-03-03T05:48:46;99855.84;;;-145.95;100.00
37648;BME280;23490;53.656;10.076;2023-03-03T05:51:11;99860.00;;;-145.95;100.00
37648;BME280;23490;53.656;10.076;2023-03-03T05:53:36;99880.66;;;-145.95;100.00
37648;BME280;23490;53.656;10.076;2023-03-03T05:56:02;99882.72;;;-145.95;100.00
37648;BME280;23490;53.656;10.076;2023-03-03T05:58:27;99897.16;;;-145.95;100.00
37648;BME280;23490;53.656;10.076;2023-03-03T06:00:53;99876.50;;;-145.95;100.00
37648;BME280;23490;53.656;10.076;2023-03-03T06:03:18;99876.50;;;-145.95;100.00
37648;BME280;23490;53.656;10.076;2023-03-03T06:05:43;99884.78;;;-145.95;100.00
37648;BME280;23490;53.656;10.076;2023-03-03T06:08:09;99921.94;;;-145.95;100.00
37648;BME280;23490;53.656;10.076;2023-03-03T06:10:34;99913.69;;;-145.95;100.00
37648;BME280;23490;53.656;10.076;2023-03-03T06:13:00;99864.13;;;-145.95;100.00
37648;BME280;23490;53.656;10.076;2023-03-03T06:15:25;99874.44;;;-145.95;100.00
37648;BME280;23490;53.656;10.076;2023-03-03T06:17:50;99890.97;;;-145.95;100.00
37648;BME280;23490;53.656;10.076;2023-03-03T06:20:16;99895.09;;;-145.95;100.00
37648;BME280;23490;53.656;10.076;2023-03-03T06:22:41;99872.38;;;-145.95;100.00
37648;BME280;23490;53.656;10.076;2023-03-03T06:25:07;99897.16;;;-145.95;100.00
37648;BME280;23490;53.656;10.076;2023-03-03T06:27:32;99872.38;;;-145.95;100.00
37648;BME280;23490;53.656;10.076;2023-03-03T06:29:57;99884.78;;;-145.95;100.00
37648;BME280;23490;53.656;10.076;2023-03-03T06:32:23;99886.84;;;-145.95;100.00
37648;BME280;23490;53.656;10.076;2023-03-03T06:34:48;99924.03;;;-145.95;100.00
37648;BME280;23490;53.656;10.076;2023-03-03T06:37:13;99909.56;;;-145.95;100.00
37648;BME280;23490;53.656;10.076;2023-03-03T06:39:39;99866.19;;;-145.95;100.00
37648;BME280;23490;53.656;10.076;2023-03-03T06:42:04;99855.84;;;-145.95;100.00
37648;BME280;23490;53.656;10.076;2023-03-03T06:44:30;99843.47;;;-145.95;100.00
37648;BME280;23490;53.656;10.076;2023-03-03T06:46:55;99884.78;;;-145.95;100.00
37648;BME280;23490;53.656;10.076;2023-03-03T06:49:22;99868.25;;;-145.95;100.00
37648;BME280;23490;53.656;10.076;2023-03-03T06:51:47;99868.25;;;-145.95;100.00
37648;BME280;23490;53.656;10.076;2023-03-03T06:54:17;99870.31;;;-145.95;100.00
37648;BME280;23490;53.656;10.076;2023-03-03T06:56:43;99849.66;;;-145.95;100.00
37648;BME280;23490;53.656;10.076;2023-03-03T06:59:14;99880.66;;;-145.95;100.00
37648;BME280;23490;53.656;10.076;2023-03-03T07:01:41;99862.06;;;-145.95;100.00
37648;BME280;23490;53.656;10.076;2023-03-03T07:06:38;99897.16;;;-145.95;100.00
37648;BME280;23490;53.656;10.076;2023-03-03T07:09:08;99855.84;;;-145.95;100.00
37648;BME280;23490;53.656;10.076;2023-03-03T07:11:36;99833.13;;;-145.95;100.00
37648;BME280;23490;53.656;10.076;2023-03-03T07:14:13;99876.50;;;-145.95;100.00
37648;BME280;23490;53.656;10.076;2023-03-03T07:16:40;99847.59;;;-145.95;100.00
37648;BME280;23490;53.656;10.076;2023-03-03T07:19:15;99860.00;;;-145.95;100.00
37648;BME280;23490;53.656;10.076;2023-03-03T07:21:42;99835.19;;;-145.95;100.00
37648;BME280;23490;53.656;10.076;2023-03-03T07:26:54;99888.91;;;-145.95;100.00
37648;BME280;23490;53.656;10.076;2023-03-03T07:29:27;99897.16;;;-145.95;100.00
37648;BME280;23490;53.656;10.076;2023-03-03T07:31:56;99886.84;;;-145.95;100.00
37648;BME280;23490;53.656;10.076;2023-03-03T07:34:39;99835.19;;;-145.95;100.00
37648;BME280;23490;53.656;10.076;2023-03-03T07:37:16;99812.47;;;-145.95;100.00
37648;BME280;23490;53.656;10.076;2023-03-03T07:39:44;99839.34;;;-145.95;100.00
37648;BME280;23490;53.656;10.076;2023-03-03T07:44:44;99862.06;;;-145.95;100.00
37648;BME280;23490;53.656;10.076;2023-03-03T07:47:30;99868.25;;;-145.95;100.00
37648;BME280;23490;53.656;10.076;2023-03-03T07:50:09;99851.72;;;-145.95;100.00
37648;BME280;23490;53.656;10.076;2023-03-03T07:52:42;99822.81;;;-145.95;100.00
37648;BME280;23490;53.656;10.076;2023-03-03T07:55:36;99835.19;;;-145.95;100.00
37648;BME280;23490;53.656;10.076;2023-03-03T08:03:09;99831.06;;;-145.95;100.00
37648;BME280;23490;53.656;10.076;2023-03-03T08:05:40;99864.13;;;-145.95;100.00
37648;BME280;23490;53.656;10.076;2023-03-03T08:08:11;99814.56;;;-145.95;100.00
37648;BME280;23490;53.656;10.076;2023-03-03T08:11:08;99818.69;;;-145.95;100.00
37648;BME280;23490;53.656;10.076;2023-03-03T08:18:35;99851.72;;;-145.95;100.00
37648;BME280;23490;53.656;10.076;2023-03-03T08:21:08;99826.94;;;-145.95;100.00
37648;BME280;23490;53.656;10.076;2023-03-03T08:23:35;99798.03;;;-145.95;100.00
37648;BME280;23490;53.656;10.076;2023-03-03T08:26:00;99835.19;;;-145.95;100.00
37648;BME280;23490;53.656;10.076;2023-03-03T08:28:25;99806.28;;;-145.95;100.00
37648;BME280;23490;53.656;10.076;2023-03-03T08:30:51;99822.81;;;-145.95;100.00
37648;BME280;23490;53.656;10.076;2023-03-03T08:33:17;99773.25;;;-145.95;100.00
37648;BME280;23490;53.656;10.076;2023-03-03T08:35:43;99818.69;;;-145.95;100.00
37648;BME280;23490;53.656;10.076;2023-03-03T08:38:12;99814.56;;;-145.95;100.00
37648;BME280;23490;53.656;10.076;2023-03-03T08:40:38;99798.03;;;-145.95;100.00
37648;BME280;23490;53.656;10.076;2023-03-03T08:43:04;99789.75;;;-145.95;100.00
37648;BME280;23490;53.656;10.076;2023-03-03T08:45:30;99822.81;;;-145.95;100.00
37648;BME280;23490;53.656;10.076;2023-03-03T08:47:55;99806.28;;;-145.95;100.00
37648;BME280;23490;53.656;10.076;2023-03-03T08:50:21;99835.19;;;-145.95;100.00
37648;BME280;23490;53.656;10.076;2023-03-03T08:52:47;99791.81;;;-145.95;100.00
37648;BME280;23490;53.656;10.076;2023-03-03T08:55:12;99756.72;;;-145.95;100.00
37648;BME280;23490;53.656;10.076;2023-03-03T08:57:38;99771.19;;;-145.95;100.00
37648;BME280;23490;53.656;10.076;2023-03-03T09:00:05;99795.97;;;-145.95;100.00
37648;BME280;23490;53.656;10.076;2023-03-03T09:02:31;99806.28;;;-145.95;100.00
37648;BME280;23490;53.656;10.076;2023-03-03T09:04:56;99760.84;;;-145.95;100.00
37648;BME280;23490;53.656;10.076;2023-03-03T09:07:21;99793.91;;;-145.95;100.00
37648;BME280;23490;53.656;10.076;2023-03-03T09:09:47;99814.56;;;-145.95;100.00
37648;BME280;23490;53.656;10.076;2023-03-03T09:12:16;99789.75;;;-145.95;100.00
37648;BME280;23490;53.656;10.076;2023-03-03T09:14:42;99756.72;;;-145.95;100.00
37648;BME280;23490;53.656;10.076;2023-03-03T09:19:51;99769.13;;;-145.95;100.00
37648;BME280;23490;53.656;10.076;2023-03-03T09:22:24;99793.91;;;-145.95;100.00
37648;BME280;23490;53.656;10.076;2023-03-03T09:24:52;99798.03;;;-145.95;100.00
37648;BME280;23490;53.656;10.076;2023-03-03T09:27:34;99802.16;;;-145.95;100.00
37648;BME280;23490;53.656;10.076;2023-03-03T09:32:50;99767.03;;;-145.95;100.00
37648;BME280;23490;53.656;10.076;2023-03-03T09:37:51;99748.44;;;-145.95;100.00
37648;BME280;23490;53.656;10.076;2023-03-03T09:40:45;99731.94;;;-145.95;100.00
37648;BME280;23490;53.656;10.076;2023-03-03T09:45:58;99762.91;;;-145.95;100.00
37648;BME280;23490;53.656;10.076;2023-03-03T09:48:50;99723.66;;;-145.95;100.00
37648;BME280;23490;53.656;10.076;2023-03-03T09:51:21;99754.66;;;-145.95;100.00
37648;BME280;23490;53.656;10.076;2023-03-03T09:54:04;99760.84;;;-145.95;100.00
37648;BME280;23490;53.656;10.076;2023-03-03T09:56:35;99721.59;;;-145.95;100.00
37648;BME280;23490;53.656;10.076;2023-03-03T10:10:05;99736.06;;;-145.95;100.00
37648;BME280;23490;53.656;10.076;2023-03-03T10:12:51;99649.31;;;-145.95;100.00
37648;BME280;23490;53.656;10.076;2023-03-03T10:15:36;99678.22;;;-145.95;100.00
37648;BME280;23490;53.656;10.076;2023-03-03T10:18:33;99723.66;;;-145.95;100.00
37648;BME280;23490;53.656;10.076;2023-03-03T10:34:36;99657.56;;;-145.95;100.00
37648;BME280;23490;53.656;10.076;2023-03-03T10:40:18;99649.31;;;-145.95;100.00
37648;BME280;23490;53.656;10.076;2023-03-03T10:48:47;99649.31;;;-145.95;100.00
37648;BME280;23490;53.656;10.076;2023-03-03T10:51:32;99661.72;;;-145.95;100.00
37648;BME280;23490;53.656;10.076;2023-03-03T10:54:11;99645.19;;;-145.95;100.00
37648;BME280;23490;53.656;10.076;2023-03-03T10:59:46;99636.94;;;-145.95;100.00
37648;BME280;23490;53.656;10.076;2023-03-03T11:12:33;99669.97;;;-145.95;100.00
37648;BME280;23490;53.656;10.076;2023-03-03T11:17:56;99616.28;;;-145.95;100.00
37648;BME280;23490;53.656;10.076;2023-03-03T11:34:55;99616.28;;;-145.95;100.00
37648;BME280;23490;53.656;10.076;2023-03-03T11:37:51;99641.06;;;-145.95;100.00
37648;BME280;23490;53.656;10.076;2023-03-03T11:40:23;99554.31;;;-145.95;100.00
37648;BME280;23490;53.656;10.076;2023-03-03T11:42:59;99550.19;;;-145.95;100.00
37648;BME280;23490;53.656;10.076;2023-03-03T11:45:42;99558.44;;;-145.95;100.00
37648;BME280;23490;53.656;10.076;2023-03-03T11:51:03;99579.09;;;-145.95;100.00
37648;BME280;23490;53.656;10.076;2023-03-03T11:53:57;99574.97;;;-145.95;100.00
37648;BME280;23490;53.656;10.076;2023-03-03T11:56:28;99554.31;;;-145.95;100.00
37648;BME280;23490;53.656;10.076;2023-03-03T12:04:12;99546.06;;;-145.95;100.00
37648;BME280;23490;53.656;10.076;2023-03-03T12:07:12;99570.84;;;-145.95;100.00
37648;BME280;23490;53.656;10.076;2023-03-03T12:10:05;99558.44;;;-145.95;100.00
37648;BME280;23490;53.656;10.076;2023-03-03T12:12:44;99546.06;;;-145.95;100.00
37648;BME280;23490;53.656;10.076;2023-03-03T12:15:26;99548.13;;;-145.95;99.93
37648;BME280;23490;53.656;10.076;2023-03-03T12:21:09;99508.88;;;-145.95;100.00
37648;BME280;23490;53.656;10.076;2023-03-03T12:26:21;99424.19;;;-145.95;96.62
37648;BME280;23490;53.656;10.076;2023-03-03T12:28:54;99479.97;;;-145.95;96.91
37648;BME280;23490;53.656;10.076;2023-03-03T12:31:42;99405.63;;;-145.95;96.37
37648;BME280;23490;53.656;10.076;2023-03-03T12:34:34;99438.66;;;-145.95;94.94
37648;BME280;23490;53.656;10.076;2023-03-03T12:39:59;99440.72;;;-145.95;92.56
37648;BME280;23490;53.656;10.076;2023-03-03T12:42:36;99463.44;;;-145.95;93.60
37648;BME280;23490;53.656;10.076;2023-03-03T12:47:49;99479.97;;;-145.95;94.83
37648;BME280;23490;53.656;10.076;2023-03-03T12:50:38;99517.13;;;-145.95;94.95
37648;BME280;23490;53.656;10.076;2023-03-03T12:53:24;99492.34;;;-145.95;93.51
37648;BME280;23490;53.656;10.076;2023-03-03T12:56:06;99473.75;;;-145.95;94.83
37648;BME280;23490;53.656;10.076;2023-03-03T13:06:29;99513.00;;;-145.95;94.26
37648;BME280;23490;53.656;10.076;2023-03-03T13:09:32;99500.63;;;-145.95;94.36
37648;BME280;23490;53.656;10.076;2023-03-03T13:12:27;99459.31;;;-145.95;93.53
37648;BME280;23490;53.656;10.076;2023-03-03T13:17:31;99471.69;;;-145.95;94.60
37648;BME280;23490;53.656;10.076;2023-03-03T13:20:05;99467.56;;;-145.95;94.38
37648;BME280;23490;53.656;10.076;2023-03-03T13:22:43;99504.75;;;-145.95;93.10
37648;BME280;23490;53.656;10.076;2023-03-03T13:25:49;99459.31;;;-145.95;93.16
37648;BME280;23490;53.656;10.076;2023-03-03T13:30:47;99465.50;;;-145.95;93.43
37648;BME280;23490;53.656;10.076;2023-03-03T13:35:54;99436.59;;;-145.95;93.67
37648;BME280;23490;53.656;10.076;2023-03-03T13:38:33;99469.63;;;-145.95;92.76
37648;BME280;23490;53.656;10.076;2023-03-03T13:41:10;99475.84;;;-145.95;91.86
37648;BME280;23490;53.656;10.076;2023-03-03T13:44:01;99459.31;;;-145.95;91.19
37648;BME280;23490;53.656;10.076;2023-03-03T13:52:04;99376.69;;;-145.95;84.70
37648;BME280;23490;53.656;10.076;2023-03-03T13:57:19;99484.09;;;-145.95;81.73
37648;BME280;23490;53.656;10.076;2023-03-03T14:02:53;99430.41;;;-145.95;81.93
37648;BME280;23490;53.656;10.076;2023-03-03T14:08:07;99426.28;;;-145.95;81.05
37648;BME280;23490;53.656;10.076;2023-03-03T14:13:40;99418.00;;;-145.95;81.45
37648;BME280;23490;53.656;10.076;2023-03-03T14:19:25;99415.94;;;-145.95;81.19
37648;BME280;23490;53.656;10.076;2023-03-03T14:22:05;99393.22;;;-145.95;81.14
37648;BME280;23490;53.656;10.076;2023-03-03T14:25:06;99368.44;;;-145.95;78.92
37648;BME280;23490;53.656;10.076;2023-03-03T14:30:27;99407.69;;;-145.95;75.88
37648;BME280;23490;53.656;10.076;2023-03-03T14:33:00;99438.66;;;-145.95;77.19
37648;BME280;23490;53.656;10.076;2023-03-03T14:35:36;99426.28;;;-145.95;76.71
37648;BME280;23490;53.656;10.076;2023-03-03T14:38:20;99426.28;;;-145.95;77.38
37648;BME280;23490;53.656;10.076;2023-03-03T14:40:48;99393.22;;;-145.95;78.59
37648;BME280;23490;53.656;10.076;2023-03-03T14:43:25;99418.00;;;-145.95;78.44
37648;BME280;23490;53.656;10.076;2023-03-03T14:45:52;99409.75;;;-145.95;79.17
37648;BME280;23490;53.656;10.076;2023-03-03T14:48:22;99418.00;;;-145.95;78.27
37648;BME280;23490;53.656;10.076;2023-03-03T14:50:55;99409.75;;;-145.95;78.57
37648;BME280;23490;53.656;10.076;2023-03-03T14:53:38;99422.13;;;-145.95;77.89
37648;BME280;23490;53.656;10.076;2023-03-03T14:56:21;99463.44;;;-145.95;77.77
37648;BME280;23490;53.656;10.076;2023-03-03T14:58:48;99446.91;;;-145.95;77.63
37648;BME280;23490;53.656;10.076;2023-03-03T15:01:29;99434.53;;;-145.95;78.02
37648;BME280;23490;53.656;10.076;2023-03-03T15:03:59;99434.53;;;-145.95;77.61
37648;BME280;23490;53.656;10.076;2023-03-03T15:06:45;99434.53;;;-145.95;77.42
37648;BME280;23490;53.656;10.076;2023-03-03T15:11:57;99455.19;;;-145.95;77.58
37648;BME280;23490;53.656;10.076;2023-03-03T15:14:37;99436.59;;;-145.95;77.17
37648;BME280;23490;53.656;10.076;2023-03-03T15:19:50;99469.63;;;-145.95;78.39
37648;BME280;23490;53.656;10.076;2023-03-03T15:25:08;99426.28;;;-145.95;78.29
37648;BME280;23490;53.656;10.076;2023-03-03T15:27:44;99463.44;;;-145.95;79.11
37648;BME280;23490;53.656;10.076;2023-03-03T15:30:31;99422.13;;;-145.95;79.16
37648;BME280;23490;53.656;10.076;2023-03-03T15:35:53;99455.19;;;-145.95;80.27
37648;BME280;23490;53.656;10.076;2023-03-03T15:38:44;99459.31;;;-145.95;80.00